createdAt,value
2018-06-12T00:02:21.027Z,18.00
2018-06-12T00:04:48.349Z,17.90
2018-06-12T00:07:15.372Z,17.80
2018-06-12T00:09:42.702Z,17.80
2018-06-12T00:12:09.782Z,17.80
2018-06-12T00:14:36.808Z,17.90
2018-06-12T00:17:03.914Z,17.80
2018-06-12T00:19:31.133Z,17.80
2018-06-12T00:21:58.341Z,17.90
2018-06-12T00:24:25.468Z,17.80
2018-06-12T00:26:52.579Z,17.80
2018-06-12T00:29:19.796Z,17.80
2018-06-12T00:31:46.780Z,17.70
2018-06-12T00:34:13.635Z,17.60
2018-06-12T00:36:40.567Z,17.70
2018-06-12T00:39:07.416Z,17.70
2018-06-12T00:41:34.356Z,17.80
2018-06-12T00:44:01.248Z,17.60
2018-06-12T00:46:28.118Z,17.70
2018-06-12T00:48:55.782Z,17.80
2018-06-12T00:51:22.656Z,17.70
2018-06-12T00:53:49.641Z,17.80
2018-06-12T00:56:16.607Z,17.80
2018-06-12T00:58:44.268Z,17.80
2018-06-12T01:01:11.961Z,17.80
2018-06-12T01:03:38.874Z,17.80
2018-06-12T01:06:06.542Z,18.00
2018-06-12T01:08:34.216Z,18.10
2018-06-12T01:11:01.113Z,18.00
2018-06-12T01:13:28.789Z,18.00
2018-06-12T01:15:55.682Z,18.00
2018-06-12T01:18:22.591Z,18.10
2018-06-12T01:20:49.567Z,18.00
2018-06-12T01:23:16.708Z,18.00
2018-06-12T01:25:44.396Z,18.00
2018-06-12T01:28:11.253Z,18.00
2018-06-12T01:30:38.115Z,18.10
2018-06-12T01:33:05.104Z,18.10
2018-06-12T01:35:32.009Z,18.00
2018-06-12T01:37:58.912Z,18.10
2018-06-12T01:40:25.845Z,18.10
2018-06-12T01:42:53.449Z,18.00
2018-06-12T01:45:20.392Z,18.00
2018-06-12T01:47:47.247Z,18.10
2018-06-12T01:50:14.102Z,18.20
2018-06-12T01:52:41.016Z,18.20
2018-06-12T01:55:07.938Z,18.20
2018-06-12T01:57:34.868Z,18.00
2018-06-12T02:00:01.770Z,18.00
2018-06-12T02:02:28.684Z,18.00
2018-06-12T02:04:55.575Z,17.90
2018-06-12T02:07:22.485Z,18.00
2018-06-12T02:09:49.349Z,17.90
2018-06-12T02:12:16.324Z,18.00
2018-06-12T02:14:43.239Z,17.90
2018-06-12T02:17:10.124Z,17.90
2018-06-12T02:19:37.120Z,18.00
2018-06-12T02:22:04.021Z,18.00
2018-06-12T02:24:30.932Z,18.10
2018-06-12T02:26:58.596Z,18.20
2018-06-12T02:29:25.552Z,18.20
2018-06-12T02:31:52.506Z,18.20
2018-06-12T02:34:19.363Z,18.30
2018-06-12T02:36:46.316Z,18.30
2018-06-12T02:39:13.284Z,18.40
2018-06-12T02:41:40.976Z,18.50
2018-06-12T02:44:07.928Z,18.50
2018-06-12T02:46:34.788Z,18.50
2018-06-12T02:49:01.744Z,18.40
2018-06-12T02:51:28.656Z,18.30
2018-06-12T02:53:55.516Z,18.20
2018-06-12T02:56:22.448Z,18.20
2018-06-12T02:58:50.076Z,18.10
2018-06-12T03:01:17.681Z,18.20
2018-06-12T03:03:44.605Z,18.20
2018-06-12T03:06:11.558Z,18.20
2018-06-12T03:08:38.449Z,18.20
2018-06-12T03:11:05.405Z,18.20
2018-06-12T03:13:32.272Z,18.30
2018-06-12T03:15:59.218Z,18.30
2018-06-12T03:18:26.090Z,18.30
2018-06-12T03:20:53.007Z,18.40
2018-06-12T03:23:19.948Z,18.30
2018-06-12T03:25:46.955Z,18.40
2018-06-12T03:28:13.950Z,18.30
2018-06-12T03:30:40.849Z,18.30
2018-06-12T03:33:07.795Z,18.30
2018-06-12T03:35:34.693Z,18.30
2018-06-12T03:38:01.623Z,18.30
2018-06-12T03:40:29.370Z,18.20
2018-06-12T03:42:56.358Z,18.20
2018-06-12T03:45:23.221Z,18.10
2018-06-12T03:47:50.151Z,18.00
2018-06-12T03:50:17.071Z,18.00
2018-06-12T03:52:44.721Z,17.80
2018-06-12T03:55:12.322Z,17.80
2018-06-12T03:57:39.338Z,17.80
2018-06-12T04:00:06.274Z,17.80
2018-06-12T04:02:33.944Z,17.70
2018-06-12T04:05:00.950Z,17.70
2018-06-12T04:07:30.764Z,17.70
2018-06-12T04:09:57.707Z,17.80
2018-06-12T04:12:24.615Z,17.70
2018-06-12T04:14:51.568Z,17.70
2018-06-12T04:17:18.497Z,17.60
2018-06-12T04:19:46.094Z,17.60
2018-06-12T04:22:13.028Z,17.60
2018-06-12T04:24:39.949Z,17.60
2018-06-12T04:27:13.163Z,17.80
2018-06-12T04:29:40.086Z,17.70
2018-06-12T04:32:07.006Z,17.70
2018-06-12T04:34:33.940Z,17.60
2018-06-12T04:37:00.830Z,17.60
2018-06-12T04:39:27.780Z,17.50
2018-06-12T04:41:54.716Z,17.60
2018-06-12T04:44:22.223Z,17.50
2018-06-12T04:46:49.085Z,17.50
2018-06-12T04:49:16.052Z,17.40
2018-06-12T04:51:42.938Z,17.30
2018-06-12T04:54:09.884Z,17.40
2018-06-12T04:56:36.763Z,17.30
2018-06-12T04:59:03.709Z,17.30
2018-06-12T05:01:30.576Z,17.30
2018-06-12T05:03:57.524Z,17.20
2018-06-12T05:06:24.477Z,17.20
2018-06-12T05:08:51.387Z,17.30
2018-06-12T05:11:18.422Z,17.30
2018-06-12T05:13:45.293Z,17.20
2018-06-12T05:16:12.232Z,17.10
2018-06-12T05:18:39.192Z,17.20
2018-06-12T05:21:06.109Z,17.30
2018-06-12T05:23:33.071Z,17.50
2018-06-12T05:25:59.958Z,17.40
2018-06-12T05:28:27.704Z,17.60
2018-06-12T05:30:55.082Z,17.60
2018-06-12T05:33:22.693Z,17.30
2018-06-12T05:35:49.614Z,17.30
2018-06-12T05:38:16.505Z,17.30
2018-06-12T05:40:43.444Z,17.30
2018-06-12T05:43:10.316Z,17.30
2018-06-12T05:45:37.230Z,17.20
2018-06-12T05:48:04.254Z,17.00
2018-06-12T05:50:31.139Z,17.10
2018-06-12T05:52:58.069Z,17.00
2018-06-12T05:55:24.988Z,17.10
2018-06-12T05:57:51.939Z,17.00
2018-06-12T06:00:18.834Z,17.00
2018-06-12T06:02:46.524Z,16.90
2018-06-12T06:05:13.492Z,16.90
2018-06-12T06:07:40.377Z,16.90
2018-06-12T06:10:07.310Z,17.00
2018-06-12T06:12:34.224Z,17.00
2018-06-12T06:15:01.172Z,17.00
2018-06-12T06:17:28.017Z,17.10
2018-06-12T06:19:54.889Z,17.20
2018-06-12T06:22:22.634Z,17.10
2018-06-12T06:24:49.512Z,17.10
2018-06-12T06:27:17.225Z,17.20
2018-06-12T06:29:45.979Z,17.20
2018-06-12T06:32:12.941Z,17.10
2018-06-12T06:34:40.376Z,17.30
2018-06-12T06:37:07.312Z,17.20
2018-06-12T06:39:34.308Z,17.20
2018-06-12T06:42:01.201Z,17.30
2018-06-12T06:44:29.872Z,17.40
2018-06-12T06:46:56.833Z,17.10
2018-06-12T06:49:23.838Z,17.20
2018-06-12T06:51:50.856Z,17.00
2018-06-12T06:54:18.544Z,17.00
2018-06-12T06:57:01.554Z,17.00
2018-06-12T06:59:32.334Z,16.90
2018-06-12T07:01:59.237Z,17.10
2018-06-12T07:04:26.240Z,17.00
2018-06-12T07:06:53.831Z,17.10
2018-06-12T07:09:24.173Z,17.10
2018-06-12T07:11:54.310Z,17.10
2018-06-12T07:14:21.357Z,17.20
2018-06-12T07:16:48.364Z,17.30
2018-06-12T07:19:15.225Z,17.40
2018-06-12T07:21:42.184Z,17.30
2018-06-12T07:24:09.216Z,17.20
2018-06-12T07:26:36.225Z,17.30
2018-06-12T07:29:03.211Z,17.30
2018-06-12T07:31:30.164Z,17.40
2018-06-12T07:33:57.881Z,17.30
2018-06-12T07:36:24.772Z,17.30
2018-06-12T07:38:52.560Z,17.30
2018-06-12T07:41:19.435Z,17.30
2018-06-12T07:43:46.380Z,17.10
2018-06-12T07:46:13.384Z,17.30
2018-06-12T07:48:40.323Z,17.30
2018-06-12T07:51:07.183Z,17.40
2018-06-12T07:53:34.112Z,17.50
2018-06-12T07:56:01.010Z,17.40
2018-06-12T07:58:28.743Z,17.30
2018-06-12T08:00:55.686Z,17.40
2018-06-12T08:03:22.592Z,17.30
2018-06-12T08:05:50.333Z,17.30
2018-06-12T08:08:17.210Z,17.30
2018-06-12T08:10:44.819Z,17.30
2018-06-12T08:13:11.748Z,17.30
2018-06-12T08:15:39.576Z,17.40
2018-06-12T08:18:06.504Z,17.50
2018-06-12T08:20:33.435Z,17.40
2018-06-12T08:23:00.425Z,17.40
2018-06-12T08:25:27.357Z,17.30
2018-06-12T08:27:54.205Z,17.30
2018-06-12T08:30:21.257Z,17.30
2018-06-12T08:32:48.082Z,17.00
2018-06-12T08:35:15.030Z,17.10
2018-06-12T08:37:41.964Z,16.80
2018-06-12T08:40:08.910Z,17.00
2018-06-12T08:42:35.931Z,16.90
2018-06-12T08:45:05.636Z,16.90
2018-06-12T08:47:32.606Z,16.70
2018-06-12T08:49:59.589Z,16.70
2018-06-12T08:52:26.537Z,16.80
2018-06-12T08:54:53.414Z,16.60
2018-06-12T08:57:20.294Z,16.80
2018-06-12T08:59:47.250Z,16.90
2018-06-12T09:02:14.189Z,17.00
2018-06-12T09:04:41.130Z,17.00
2018-06-12T09:07:08.077Z,17.00
2018-06-12T09:09:34.938Z,17.30
2018-06-12T09:12:01.915Z,17.10
2018-06-12T09:14:29.538Z,17.40
2018-06-12T09:16:56.400Z,17.40
2018-06-12T09:19:23.383Z,17.50
2018-06-12T09:21:51.006Z,17.20
2018-06-12T09:24:18.007Z,17.20
2018-06-12T09:26:44.867Z,17.50
2018-06-12T09:29:11.793Z,17.60
2018-06-12T09:31:38.733Z,17.60
2018-06-12T09:34:06.349Z,17.80
2018-06-12T09:36:33.405Z,17.80
2018-06-12T09:39:00.311Z,17.60
2018-06-12T09:41:27.240Z,17.80
2018-06-12T09:43:54.147Z,18.00
2018-06-12T09:46:21.099Z,17.90
2018-06-12T09:48:47.958Z,17.70
2018-06-12T09:51:14.887Z,17.60
2018-06-12T09:53:41.744Z,17.80
2018-06-12T09:56:08.611Z,17.60
2018-06-12T09:58:35.562Z,17.80
2018-06-12T10:01:02.510Z,17.80
2018-06-12T10:03:29.440Z,17.80
2018-06-12T10:05:57.135Z,17.90
2018-06-12T10:08:24.085Z,17.90
2018-06-12T10:10:50.964Z,17.90
2018-06-12T10:13:17.826Z,18.00
2018-06-12T10:15:44.734Z,17.90
2018-06-12T10:18:11.738Z,17.90
2018-06-12T10:20:39.436Z,17.80
2018-06-12T10:23:06.324Z,17.80
2018-06-12T10:25:33.265Z,17.90
2018-06-12T10:28:00.110Z,18.10
2018-06-12T10:30:27.045Z,18.20
2018-06-12T10:32:53.973Z,18.20
2018-06-12T10:35:21.182Z,18.20
2018-06-12T10:37:48.067Z,18.30
2018-06-12T10:40:14.982Z,18.20
2018-06-12T10:42:41.920Z,18.20
2018-06-12T10:45:08.866Z,18.20
2018-06-12T10:47:36.493Z,18.10
2018-06-12T10:50:03.491Z,18.10
2018-06-12T10:52:30.451Z,18.30
2018-06-12T10:54:57.316Z,18.20
2018-06-12T10:57:24.269Z,18.20
2018-06-12T10:59:54.164Z,18.30
2018-06-12T11:02:21.848Z,17.90
2018-06-12T11:04:52.322Z,17.80
2018-06-12T11:10:13.133Z,18.00
2018-06-12T11:12:44.643Z,18.40
2018-06-12T11:15:16.643Z,18.40
2018-06-12T11:17:53.961Z,18.50
2018-06-12T11:20:21.226Z,18.50
2018-06-12T11:22:48.141Z,18.60
2018-06-12T11:25:19.131Z,18.80
2018-06-12T11:27:51.155Z,18.80
2018-06-12T11:30:20.693Z,18.70
2018-06-12T11:32:51.328Z,18.80
2018-06-12T11:35:22.449Z,18.80
2018-06-12T11:37:51.760Z,18.50
2018-06-12T11:40:23.012Z,18.40
2018-06-12T11:42:52.436Z,18.30
2018-06-12T11:45:21.179Z,18.00
2018-06-12T11:47:48.733Z,18.20
2018-06-12T11:50:16.558Z,18.20
2018-06-12T11:52:44.506Z,18.10
2018-06-12T11:55:12.279Z,18.20
2018-06-12T11:57:43.306Z,18.20
2018-06-12T12:00:10.323Z,18.30
2018-06-12T12:02:37.483Z,18.40
2018-06-12T12:05:04.482Z,18.40
2018-06-12T12:07:31.340Z,18.50
2018-06-12T12:09:59.746Z,18.60
2018-06-12T12:12:27.799Z,18.60
2018-06-12T12:14:54.748Z,18.50
2018-06-12T12:17:21.605Z,18.40
2018-06-12T12:19:49.272Z,18.40
2018-06-12T12:22:17.038Z,18.40
2018-06-12T12:24:45.115Z,18.40
2018-06-12T12:27:12.848Z,18.50
2018-06-12T12:29:41.090Z,18.50
2018-06-12T12:32:07.989Z,18.60
2018-06-12T12:34:35.602Z,18.60
2018-06-12T12:37:03.924Z,18.60
2018-06-12T12:39:30.863Z,18.50
2018-06-12T12:41:58.163Z,18.50
2018-06-12T12:44:25.058Z,18.60
2018-06-12T12:46:52.024Z,18.70
2018-06-12T12:49:19.809Z,18.90
2018-06-12T12:51:46.785Z,18.90
2018-06-12T12:54:13.769Z,19.20
2018-06-12T12:56:40.701Z,19.40
2018-06-12T12:59:07.657Z,19.70
2018-06-12T13:01:34.565Z,19.80
2018-06-12T13:04:01.508Z,19.80
2018-06-12T13:06:28.488Z,19.80
2018-06-12T13:08:55.556Z,19.70
2018-06-12T13:11:22.530Z,19.60
2018-06-12T13:13:49.497Z,19.50
2018-06-12T13:16:16.442Z,19.50
2018-06-12T13:18:44.601Z,19.50
2018-06-12T13:21:11.609Z,19.30
2018-06-12T13:23:38.496Z,19.20
2018-06-12T13:26:05.520Z,19.30
2018-06-12T13:28:33.241Z,19.30
2018-06-12T13:31:00.161Z,19.30
2018-06-12T13:33:27.163Z,19.50
2018-06-12T13:35:54.200Z,19.50
2018-06-12T13:38:21.197Z,19.40
2018-06-12T13:40:48.169Z,19.50
2018-06-12T13:43:15.126Z,20.10
2018-06-12T13:45:42.051Z,20.50
2018-06-12T13:48:09.039Z,20.40
2018-06-12T13:50:36.698Z,20.70
2018-06-12T13:53:03.649Z,20.70
2018-06-12T13:55:30.686Z,20.40
2018-06-12T13:57:57.955Z,20.10
2018-06-12T14:00:25.037Z,20.00
2018-06-12T14:02:55.521Z,19.80
2018-06-12T14:05:22.779Z,19.80
2018-06-12T14:07:51.651Z,19.60
2018-06-12T14:10:18.648Z,19.70
2018-06-12T14:12:46.266Z,19.60
2018-06-12T14:15:14.894Z,19.40
2018-06-12T14:17:42.608Z,19.50
2018-06-12T14:20:12.493Z,19.50
2018-06-12T14:22:41.832Z,19.40
2018-06-12T14:25:10.522Z,19.50
2018-06-12T14:27:37.408Z,19.50
2018-06-12T14:30:07.261Z,19.40
2018-06-12T14:32:35.012Z,19.50
2018-06-12T14:35:03.916Z,19.50
2018-06-12T14:37:32.872Z,19.60
2018-06-12T14:40:00.503Z,19.50
2018-06-12T14:42:30.845Z,19.50
2018-06-12T14:44:59.764Z,19.50
2018-06-12T14:47:29.692Z,19.70
2018-06-12T14:49:56.747Z,19.60
2018-06-12T14:52:24.962Z,19.50
2018-06-12T14:54:55.533Z,19.30
2018-06-12T14:57:26.610Z,19.30
2018-06-12T14:59:54.509Z,19.40
2018-06-12T15:02:22.961Z,19.20
2018-06-12T15:04:49.930Z,19.20
2018-06-12T15:07:16.849Z,19.20
2018-06-12T15:09:44.589Z,19.10
2018-06-12T15:12:14.180Z,19.10
2018-06-12T15:14:41.181Z,19.10
2018-06-12T15:17:08.164Z,19.10
2018-06-12T15:19:35.133Z,18.90
2018-06-12T15:22:02.079Z,18.90
2018-06-12T15:24:29.809Z,18.80
2018-06-12T15:26:56.787Z,18.80
2018-06-12T15:29:24.536Z,18.80
2018-06-12T15:31:54.057Z,18.80
2018-06-12T15:34:21.545Z,18.80
2018-06-12T15:36:48.473Z,18.70
2018-06-12T15:39:15.378Z,18.80
2018-06-12T15:41:42.241Z,18.80
2018-06-12T15:44:12.283Z,18.90
2018-06-12T15:46:43.132Z,18.90
2018-06-12T15:49:10.333Z,19.00
2018-06-12T15:51:37.208Z,18.90
2018-06-12T15:54:05.420Z,19.00
2018-06-12T15:56:32.369Z,19.00
2018-06-12T15:58:59.320Z,19.00
2018-06-12T16:01:26.195Z,19.00
2018-06-12T16:03:56.030Z,19.10
2018-06-12T16:06:23.738Z,19.00
2018-06-12T16:08:50.691Z,19.20
2018-06-12T16:11:18.836Z,19.10
2018-06-12T16:13:45.797Z,19.00
2018-06-12T16:16:14.170Z,18.90
2018-06-12T16:18:42.747Z,19.00
2018-06-12T16:21:10.508Z,19.20
2018-06-12T16:23:37.988Z,19.10
2018-06-12T16:26:04.964Z,19.20
2018-06-12T16:28:32.740Z,19.30
2018-06-12T16:30:59.698Z,19.30
2018-06-12T16:33:26.570Z,19.30
2018-06-12T16:35:53.507Z,19.20
2018-06-12T16:38:21.127Z,19.20
2018-06-12T16:40:48.066Z,19.20
2018-06-12T16:43:14.935Z,19.20
2018-06-12T16:45:41.853Z,19.20
2018-06-12T16:48:10.689Z,19.00
2018-06-12T16:50:45.901Z,19.20
2018-06-12T16:53:14.820Z,19.10
2018-06-12T16:55:42.693Z,19.30
2018-06-12T16:58:19.253Z,19.30
2018-06-12T17:00:47.165Z,19.40
2018-06-12T17:03:17.866Z,19.20
2018-06-12T17:05:44.860Z,19.40
2018-06-12T17:08:11.743Z,19.30
2018-06-12T17:10:38.649Z,19.30
2018-06-12T17:13:05.666Z,19.40
2018-06-12T17:15:32.635Z,19.30
2018-06-12T17:18:03.200Z,19.20
2018-06-12T17:20:30.278Z,19.30
2018-06-12T17:22:57.347Z,19.10
2018-06-12T17:25:24.254Z,19.10
2018-06-12T17:27:51.340Z,19.00
2018-06-12T17:30:18.274Z,18.90
2018-06-12T17:32:45.384Z,19.00
2018-06-12T17:35:14.057Z,19.00
2018-06-12T17:37:41.884Z,18.90
2018-06-12T17:40:08.852Z,18.90
2018-06-12T17:42:35.834Z,18.80
2018-06-12T17:45:12.607Z,18.80
2018-06-12T17:47:40.824Z,18.80
2018-06-12T17:50:18.022Z,18.80
2018-06-12T17:52:45.130Z,18.90
2018-06-12T17:55:12.777Z,18.80
2018-06-12T17:57:39.758Z,18.70
2018-06-12T18:00:06.954Z,18.80
2018-06-12T18:02:33.872Z,18.60
2018-06-12T18:05:01.853Z,18.80
2018-06-12T18:07:39.310Z,18.80
2018-06-12T18:10:07.177Z,18.80
2018-06-12T18:12:35.313Z,18.80
2018-06-12T18:15:02.304Z,18.80
2018-06-12T18:17:30.085Z,18.80
2018-06-12T18:19:57.652Z,18.80
2018-06-12T18:22:24.984Z,18.80
2018-06-12T18:24:52.048Z,18.80
2018-06-12T18:27:21.867Z,18.80
2018-06-12T18:29:49.608Z,18.90
2018-06-12T18:32:20.100Z,18.80
2018-06-12T18:34:47.205Z,18.80
2018-06-12T18:37:15.012Z,18.70
2018-06-12T18:39:42.975Z,18.80
2018-06-12T18:42:09.985Z,18.70
2018-06-12T18:44:39.705Z,18.70
2018-06-12T18:47:10.308Z,18.70
2018-06-12T18:49:37.469Z,18.70
2018-06-12T18:52:05.997Z,18.60
2018-06-12T18:54:33.114Z,18.70
2018-06-12T18:57:02.986Z,18.70
2018-06-12T18:59:32.053Z,18.80
2018-06-12T19:01:59.180Z,18.70
2018-06-12T19:04:26.924Z,18.60
2018-06-12T19:06:53.941Z,18.70
2018-06-12T19:09:21.000Z,18.70
2018-06-12T19:11:48.038Z,18.60
2018-06-12T19:14:15.001Z,18.70
2018-06-12T19:16:42.088Z,18.60
2018-06-12T19:19:09.829Z,18.60
2018-06-12T19:21:36.760Z,18.50
2018-06-12T19:24:03.809Z,18.50
2018-06-12T19:26:30.930Z,18.60
2018-06-12T19:28:57.879Z,18.40
2018-06-12T19:31:24.766Z,18.40
2018-06-12T19:33:51.713Z,18.40
2018-06-12T19:36:18.629Z,18.40
2018-06-12T19:38:45.685Z,18.30
2018-06-12T19:41:12.605Z,18.30
2018-06-12T19:43:39.593Z,18.30
2018-06-12T19:46:06.484Z,18.30
2018-06-12T19:48:33.423Z,18.30
2018-06-12T19:51:00.315Z,18.40
2018-06-12T19:53:27.278Z,18.40
2018-06-12T19:55:54.229Z,18.30
2018-06-12T19:58:21.125Z,18.30
2018-06-12T20:00:48.104Z,18.30
2018-06-12T20:03:15.027Z,18.30
2018-06-12T20:05:41.981Z,18.40
2018-06-12T20:08:08.918Z,18.40
2018-06-12T20:10:35.899Z,18.40
2018-06-12T20:13:02.891Z,18.40
2018-06-12T20:15:29.826Z,18.40
2018-06-12T20:17:56.945Z,18.40
2018-06-12T20:20:23.946Z,18.30
2018-06-12T20:22:50.866Z,18.30
2018-06-12T20:25:17.816Z,18.30
2018-06-12T20:27:45.477Z,18.40
2018-06-12T20:30:13.181Z,18.30
2018-06-12T20:32:40.129Z,18.30
2018-06-12T20:35:07.062Z,18.30
2018-06-12T20:37:34.121Z,18.30
2018-06-12T20:40:01.220Z,18.40
2018-06-12T20:42:28.171Z,18.20
2018-06-12T20:44:55.769Z,18.30
2018-06-12T20:47:22.692Z,18.20
2018-06-12T20:49:49.657Z,18.30
2018-06-12T20:52:16.609Z,18.30
2018-06-12T20:54:43.485Z,18.30
2018-06-12T20:57:10.491Z,18.30
2018-06-12T20:59:37.357Z,18.30
2018-06-12T21:02:04.490Z,18.30
2018-06-12T21:04:31.413Z,18.30
2018-06-12T21:07:12.411Z,18.30
2018-06-12T21:09:40.487Z,18.20
2018-06-12T21:12:07.490Z,18.30
2018-06-12T21:14:34.449Z,18.20
2018-06-12T21:17:01.475Z,18.30
2018-06-12T21:19:28.415Z,18.10
2018-06-12T21:21:56.081Z,18.20
2018-06-12T21:24:23.736Z,18.20
2018-06-12T21:26:50.797Z,18.10
2018-06-12T21:29:18.466Z,18.10
2018-06-12T21:31:46.426Z,18.10
2018-06-12T21:34:13.361Z,18.00
2018-06-12T21:36:40.325Z,18.00
2018-06-12T21:39:07.248Z,17.90
2018-06-12T21:41:34.148Z,17.80
2018-06-12T21:44:01.178Z,17.90
2018-06-12T21:46:28.150Z,17.70
2018-06-12T21:48:56.353Z,17.70
2018-06-12T21:51:23.401Z,17.70
2018-06-12T21:53:50.733Z,17.70
2018-06-12T21:56:17.694Z,17.70
2018-06-12T21:58:49.324Z,17.60
2018-06-12T22:01:28.632Z,17.60
2018-06-12T22:04:02.930Z,17.60
2018-06-12T22:06:33.295Z,17.60
2018-06-12T22:09:00.392Z,17.60
2018-06-12T22:11:27.342Z,17.60
2018-06-12T22:13:54.365Z,17.60
2018-06-12T22:16:28.392Z,17.40
2018-06-12T22:19:06.056Z,17.50
2018-06-12T22:21:33.016Z,17.40
2018-06-12T22:24:10.004Z,17.40
2018-06-12T22:26:39.869Z,17.30
2018-06-12T22:29:08.471Z,17.30
2018-06-12T22:31:36.042Z,17.30
2018-06-12T22:34:05.144Z,17.30
2018-06-12T22:36:35.360Z,17.30
2018-06-12T22:42:01.320Z,17.40
2018-06-12T22:44:29.093Z,17.40
2018-06-12T22:47:07.921Z,17.40
2018-06-12T22:49:37.224Z,17.40
2018-06-12T22:52:04.170Z,17.30
2018-06-12T22:54:31.997Z,17.30
2018-06-12T22:57:09.004Z,17.30
2018-06-12T22:59:38.912Z,17.20
2018-06-12T23:02:05.968Z,17.20
2018-06-12T23:04:32.911Z,17.20
2018-06-12T23:06:59.791Z,17.20
2018-06-12T23:09:26.735Z,17.10
2018-06-12T23:11:53.631Z,17.10
2018-06-12T23:14:21.400Z,17.20
2018-06-12T23:16:49.156Z,17.30
2018-06-12T23:19:16.140Z,17.30
2018-06-12T23:21:59.956Z,17.30
2018-06-12T23:24:27.689Z,17.20
2018-06-12T23:26:54.633Z,17.20
2018-06-12T23:29:21.580Z,17.10
2018-06-12T23:31:48.524Z,17.10
2018-06-12T23:34:15.396Z,17.00
2018-06-12T23:36:43.100Z,17.20
2018-06-12T23:39:10.052Z,17.10
2018-06-12T23:41:36.944Z,17.10
2018-06-12T23:44:04.792Z,17.20
2018-06-12T23:46:31.757Z,17.10
2018-06-12T23:48:58.652Z,17.10
2018-06-12T23:51:25.553Z,17.20
2018-06-12T23:53:53.220Z,17.20
2018-06-12T23:56:20.200Z,17.20
2018-06-12T23:58:47.143Z,17.20
